Time;durP1;ratioP1;P1;durP2;ratioP2;P2;SDS_P1;SDS_P2;PMS_P1;PMS_P2;Temp;Humidity;BMP_temperature;BMP_pressure;BME280_temperature;BME280_humidity;BME280_pressure;Samples;Min_cycle;Max_cycle;Signal;HPM_P1;HPM_P2
2021/12/25 00:00:21;;;;;;;8.07;4.28;;;;;;;4.27;89.71;98806.28;5060036;28;20025;-87
2021/12/25 00:02:46;;;;;;;7.53;3.72;;;;;;;4.14;90.33;98801.25;5060006;28;20032;-86
2021/12/25 00:05:12;;;;;;;14.02;3.78;;;;;;;4.20;89.61;98811.06;5064008;28;20040;-87
2021/12/25 00:07:38;;;;;;;9.57;5.28;;;;;;;4.28;88.72;98807.13;5044048;28;20028;-86
2021/12/25 00:10:06;;;;;;;9.40;4.53;;;;;;;4.16;89.54;98793.72;5065022;28;20024;-85
2021/12/25 00:12:32;;;;;;;10.00;6.00;;;;;;;4.18;89.69;98807.78;5062617;28;20153;-87
2021/12/25 00:14:57;;;;;;;10.27;4.95;;;;;;;4.18;88.52;98797.81;5044778;28;20027;-87
2021/12/25 00:17:23;;;;;;;8.50;4.90;;;;;;;4.30;88.05;98800.41;5063197;28;20032;-87
2021/12/25 00:19:48;;;;;;;10.45;5.82;;;;;;;4.43;87.72;98801.16;5060974;28;20066;-87
2021/12/25 00:22:14;;;;;;;8.45;4.72;;;;;;;4.17;88.68;98804.25;5064487;28;20827;-87
2021/12/25 00:24:43;;;;;;;10.18;6.60;;;;;;;4.01;88.48;98805.91;5062191;28;20056;-87
2021/12/25 00:32:49;;;;;;;9.30;6.28;;;;;;;4.11;88.31;98804.44;5061787;28;20245;-87
2021/12/25 00:35:26;;;;;;;16.65;7.88;;;;;;;4.01;88.20;98811.28;5060256;28;20631;-85
2021/12/25 00:37:51;;;;;;;11.68;6.35;;;;;;;4.00;89.02;98785.41;5044242;28;20017;-87
2021/12/25 00:40:18;;;;;;;12.45;6.55;;;;;;;4.02;88.71;98798.63;5063863;28;20467;-87
2021/12/25 00:42:44;;;;;;;13.25;7.20;;;;;;;4.32;88.49;98809.09;5062170;28;20029;-87
2021/12/25 00:45:10;;;;;;;13.07;7.80;;;;;;;4.04;88.13;98818.09;5044091;28;20032;-86
2021/12/25 00:47:35;;;;;;;13.00;7.38;;;;;;;3.99;89.79;98818.81;5064233;28;20036;-86
2021/12/25 00:50:01;;;;;;;10.52;6.47;;;;;;;3.97;88.50;98819.06;5043828;28;20055;-87
2021/12/25 00:52:26;;;;;;;11.80;5.40;;;;;;;4.05;88.35;98817.00;5064176;28;20502;-87
2021/12/25 00:54:51;;;;;;;10.90;5.88;;;;;;;3.67;88.70;98813.94;5061168;28;20019;-87
2021/12/25 00:57:17;;;;;;;10.43;5.57;;;;;;;3.64;89.73;98827.94;5045180;28;20036;-88
2021/12/25 00:59:42;;;;;;;13.07;6.55;;;;;;;3.55;90.07;98822.09;5061353;28;20059;-86
2021/12/25 01:02:08;;;;;;;10.50;6.40;;;;;;;3.54;89.28;98817.78;5063997;28;20047;-84
2021/12/25 01:04:33;;;;;;;11.60;6.30;;;;;;;3.44;88.42;98815.72;5046322;28;20146;-87
2021/12/25 01:06:58;;;;;;;10.90;4.78;;;;;;;3.42;89.68;98815.13;5061242;28;20024;-87
2021/12/25 01:09:24;;;;;;;11.70;5.80;;;;;;;3.50;88.79;98820.94;5067175;28;20069;-86
2021/12/25 01:11:51;;;;;;;10.20;6.30;;;;;;;3.35;90.19;98824.19;5063850;28;20037;-84
2021/12/25 01:17:19;;;;;;;10.25;5.95;;;;;;;3.28;89.58;98828.88;5060179;28;20028;-85
2021/12/25 01:30:42;;;;;;;10.02;6.18;;;;;;;3.41;87.94;98827.78;5061812;28;20028;-86
2021/12/25 01:33:15;;;;;;;9.55;6.25;;;;;;;3.22;88.35;98827.13;5058590;28;20056;-86
2021/12/25 01:36:00;;;;;;;13.98;6.63;;;;;;;3.23;87.68;98831.47;5060633;28;20035;-86
2021/12/25 01:38:39;;;;;;;9.65;5.63;;;;;;;3.37;88.42;98834.72;5058832;28;20032;-86
2021/12/25 01:49:20;;;;;;;12.75;8.05;;;;;;;3.11;87.61;98824.22;5070671;28;20318;-85
2021/12/25 01:51:45;;;;;;;12.73;6.47;;;;;;;3.22;87.97;98822.56;5067304;28;20892;-84
2021/12/25 01:54:10;;;;;;;14.48;7.47;;;;;;;3.16;88.10;98826.22;5051737;28;20069;-84
2021/12/25 01:56:36;;;;;;;12.35;6.68;;;;;;;3.14;88.08;98818.38;5051393;28;20020;-83
2021/12/25 01:59:01;;;;;;;13.73;7.03;;;;;;;3.13;88.12;98824.00;5066281;28;20578;-83
2021/12/25 02:01:27;;;;;;;14.90;8.05;;;;;;;3.19;88.12;98827.63;5068347;28;20048;-85
2021/12/25 02:03:52;;;;;;;15.13;8.93;;;;;;;3.25;87.14;98834.75;5065925;28;20024;-85
2021/12/25 02:06:17;;;;;;;15.35;8.75;;;;;;;2.84;88.47;98845.50;5067656;28;20025;-84
2021/12/25 02:08:44;;;;;;;14.80;8.55;;;;;;;2.70;88.86;98839.53;5048750;28;20044;-86
2021/12/25 02:11:10;;;;;;;13.18;7.82;;;;;;;2.87;88.53;98845.00;5065612;28;20020;-86
2021/12/25 02:13:37;;;;;;;14.57;8.23;;;;;;;2.70;88.63;98850.31;5048393;28;20039;-86
2021/12/25 02:16:07;;;;;;;16.67;9.40;;;;;;;2.66;89.44;98850.78;5069462;28;20024;-85
2021/12/25 02:18:55;;;;;;;16.65;9.02;;;;;;;2.75;88.69;98843.16;5065052;28;20767;-85
2021/12/25 02:21:21;;;;;;;13.95;7.93;;;;;;;2.68;87.80;98834.38;5065180;28;20017;-86
2021/12/25 02:23:49;;;;;;;12.40;7.72;;;;;;;2.80;87.70;98837.06;5050720;28;20391;-85
2021/12/25 02:26:16;;;;;;;12.70;7.40;;;;;;;2.74;88.01;98825.38;5063665;28;20053;-85
2021/12/25 02:28:42;;;;;;;13.55;7.75;;;;;;;2.83;88.31;98817.75;5047620;28;20028;-85
2021/12/25 02:31:09;;;;;;;11.23;6.90;;;;;;;2.56;88.29;98818.25;5068813;28;20024;-86
2021/12/25 02:33:35;;;;;;;14.07;8.20;;;;;;;2.51;89.26;98826.19;5066145;28;20157;-86
2021/12/25 02:39:05;;;;;;;12.93;7.53;;;;;;;2.77;87.53;98824.06;5059312;28;20094;-86
2021/12/25 02:41:30;;;;;;;13.35;7.95;;;;;;;2.65;87.95;98821.38;5068631;28;20028;-86
2021/12/25 02:43:56;;;;;;;14.30;9.40;;;;;;;2.54;89.15;98825.75;5067645;28;20152;-84
2021/12/25 02:46:22;;;;;;;11.93;8.88;;;;;;;2.58;88.29;98824.22;5051915;28;20051;-86
2021/12/25 02:48:47;;;;;;;12.93;7.22;;;;;;;2.65;87.13;98827.59;5072313;28;21415;-87
2021/12/25 02:51:13;;;;;;;14.60;8.57;;;;;;;2.60;86.94;98824.81;5066188;28;20072;-86
2021/12/25 02:53:39;;;;;;;11.95;7.53;;;;;;;2.70;87.59;98823.38;5052654;28;20024;-86
2021/12/25 02:56:06;;;;;;;14.85;8.40;;;;;;;2.56;87.41;98829.03;5067447;28;20025;-86
2021/12/25 02:58:31;;;;;;;14.60;8.90;;;;;;;2.58;85.93;98824.22;5070040;28;20712;-86
2021/12/25 03:01:03;;;;;;;14.23;7.85;;;;;;;2.96;86.61;98822.06;5070756;28;20017;-86
2021/12/25 03:03:28;;;;;;;16.60;9.27;;;;;;;2.84;85.83;98822.09;5067914;28;20107;-86
2021/12/25 03:05:53;;;;;;;13.63;8.27;;;;;;;2.64;86.49;98819.75;5069148;28;20128;-85
2021/12/25 03:08:19;;;;;;;12.43;8.27;;;;;;;2.57;87.31;98811.81;5067423;28;20032;-86
2021/12/25 03:10:45;;;;;;;15.20;9.27;;;;;;;2.54;87.06;98820.38;5069878;28;20028;-87
2021/12/25 03:15:46;;;;;;;16.15;8.43;;;;;;;2.73;86.12;98829.09;5073117;28;20383;-85
2021/12/25 03:18:16;;;;;;;13.50;8.88;;;;;;;2.50;86.81;98828.06;5068640;28;20024;-86
2021/12/25 03:20:46;;;;;;;12.48;7.88;;;;;;;2.51;86.83;98818.13;5067604;28;20170;-86
2021/12/25 03:23:17;;;;;;;19.00;10.77;;;;;;;2.44;86.57;98827.13;5048125;28;20020;-86
2021/12/25 03:25:44;;;;;;;15.50;9.55;;;;;;;2.36;87.19;98829.38;5066356;28;20647;-86
2021/12/25 03:28:10;;;;;;;15.23;8.35;;;;;;;2.49;87.05;98826.44;5067512;28;20090;-86
2021/12/25 03:30:39;;;;;;;14.77;9.32;;;;;;;2.25;87.78;98820.22;5065897;28;20021;-87
2021/12/25 03:33:09;;;;;;;15.75;8.65;;;;;;;2.35;87.23;98822.34;5068929;28;20041;-84
2021/12/25 03:35:34;;;;;;;17.10;9.57;;;;;;;2.31;86.95;98824.69;5070076;28;20032;-86
2021/12/25 03:38:01;;;;;;;26.30;11.40;;;;;;;2.32;86.04;98818.22;5066245;28;20016;-86
2021/12/25 03:40:27;;;;;;;15.90;9.50;;;;;;;2.21;87.54;98820.72;5068378;28;20024;-86
2021/12/25 03:42:53;;;;;;;16.90;10.63;;;;;;;2.31;87.02;98812.06;5065382;28;20039;-86
2021/12/25 03:45:18;;;;;;;17.15;10.70;;;;;;;2.35;86.85;98812.41;5068589;28;20025;-87
2021/12/25 03:47:46;;;;;;;17.70;10.10;;;;;;;2.31;86.27;98822.00;5065217;28;20027;-86
2021/12/25 03:58:23;;;;;;;16.30;9.45;;;;;;;2.17;85.85;98814.16;4993463;28;20040;-86
2021/12/25 04:00:50;;;;;;;20.17;11.57;;;;;;;1.98;87.30;98819.63;5048967;28;21359;-86
2021/12/25 04:03:24;;;;;;;16.75;9.63;;;;;;;2.00;86.94;98815.88;5067617;28;20020;-86
2021/12/25 04:05:50;;;;;;;15.13;9.32;;;;;;;2.36;85.76;98819.41;5049761;28;20036;-87
2021/12/25 04:08:19;;;;;;;18.83;10.45;;;;;;;2.22;85.45;98819.63;5050631;28;20032;-87
2021/12/25 04:10:46;;;;;;;17.88;9.82;;;;;;;2.06;85.88;98815.75;5069000;28;20115;-87
2021/12/25 04:13:26;;;;;;;16.67;8.70;;;;;;;2.00;86.16;98822.06;5047636;28;20035;-84
2021/12/25 04:15:52;;;;;;;16.48;9.75;;;;;;;2.07;86.05;98827.34;5049369;28;20016;-86
2021/12/25 04:18:17;;;;;;;13.82;8.50;;;;;;;2.10;85.96;98830.38;5067669;28;20540;-86
2021/12/25 04:20:42;;;;;;;15.15;9.82;;;;;;;2.11;86.23;98817.78;5067218;28;20027;-85
2021/12/25 04:23:13;;;;;;;17.50;10.18;;;;;;;2.00;86.62;98832.00;5069088;28;20055;-86
2021/12/25 04:25:39;;;;;;;16.70;9.20;;;;;;;2.04;86.66;98843.94;5063838;28;20094;-87
2021/12/25 04:28:18;;;;;;;19.17;9.45;;;;;;;2.12;86.29;98840.91;5069085;28;20016;-85
2021/12/25 05:06:03;;;;;;;12.85;7.38;;;;;;;1.75;86.15;98880.31;5018919;28;20049;-86
2021/12/25 05:08:29;;;;;;;12.70;6.80;;;;;;;1.89;84.31;98882.84;5017455;28;20034;-86
2021/12/25 05:10:54;;;;;;;13.20;7.32;;;;;;;1.72;86.05;98878.09;5025576;28;20028;-85
2021/12/25 05:13:20;;;;;;;17.65;9.30;;;;;;;1.72;85.64;98886.16;5069211;28;20127;-85
2021/12/25 05:15:47;;;;;;;12.48;6.55;;;;;;;1.85;84.80;98889.72;5072805;28;20284;-87
2021/12/25 05:18:13;;;;;;;14.20;8.27;;;;;;;1.59;85.02;98887.16;5054894;28;20147;-86
2021/12/25 05:20:39;;;;;;;12.60;6.70;;;;;;;1.69;84.61;98886.59;5052417;28;20447;-84
2021/12/25 05:23:05;;;;;;;14.70;8.38;;;;;;;1.56;85.29;98892.16;5070843;28;20081;-87
2021/12/25 05:25:31;;;;;;;13.63;8.27;;;;;;;1.54;85.29;98891.56;5071690;28;20044;-85
2021/12/25 05:27:59;;;;;;;12.15;7.35;;;;;;;1.59;84.85;98897.06;5072177;28;20036;-85
2021/12/25 05:30:25;;;;;;;14.75;7.63;;;;;;;1.43;86.08;98893.16;5068400;28;20118;-87
2021/12/25 05:32:50;;;;;;;12.25;6.60;;;;;;;1.35;86.26;98897.78;5070787;28;20043;-87
2021/12/25 05:35:16;;;;;;;11.93;7.47;;;;;;;1.39;85.52;98898.16;5052709;28;20025;-85
2021/12/25 05:37:41;;;;;;;14.95;8.27;;;;;;;1.69;86.20;98897.34;5072667;28;20028;-86
2021/12/25 05:40:07;;;;;;;14.63;8.90;;;;;;;1.72;84.88;98901.47;5069908;28;20044;-86
2021/12/25 05:42:32;;;;;;;14.40;7.78;;;;;;;1.69;83.67;98893.88;5069468;28;20250;-86
2021/12/25 05:44:59;;;;;;;13.07;7.90;;;;;;;1.53;85.46;98892.63;5073004;28;20081;-87
2021/12/25 05:47:25;;;;;;;14.60;7.68;;;;;;;1.42;85.07;98900.41;5070239;28;20033;-86
2021/12/25 05:49:50;;;;;;;16.65;7.50;;;;;;;1.56;84.65;98900.22;5072881;28;20024;-87
2021/12/25 05:52:16;;;;;;;11.98;6.70;;;;;;;1.39;84.82;98901.66;5049991;28;20047;-87
2021/12/25 05:54:41;;;;;;;13.10;7.38;;;;;;;1.44;85.40;98903.69;5069176;28;20055;-86
2021/12/25 05:57:06;;;;;;;12.23;6.38;;;;;;;1.51;84.53;98907.09;5070225;28;20070;-86
2021/12/25 05:59:32;;;;;;;11.50;7.00;;;;;;;1.35;85.50;98907.72;5051025;28;20047;-85
2021/12/25 06:01:57;;;;;;;12.50;5.97;;;;;;;1.24;85.66;98906.59;5052548;28;20025;-86
2021/12/25 06:04:22;;;;;;;13.18;7.03;;;;;;;1.31;85.46;98903.81;5051791;28;20016;-87
2021/12/25 06:06:48;;;;;;;11.60;6.38;;;;;;;1.46;84.54;98914.19;5070984;28;20027;-86
2021/12/25 06:09:13;;;;;;;12.27;6.78;;;;;;;1.34;85.31;98906.09;5069065;28;20561;-86
2021/12/25 06:11:39;;;;;;;14.90;7.40;;;;;;;1.34;84.62;98909.56;5070402;28;20013;-86
2021/12/25 06:14:10;;;;;;;11.93;6.43;;;;;;;1.49;84.89;98909.19;5068266;28;20084;-86
2021/12/25 06:16:36;;;;;;;12.35;6.60;;;;;;;1.57;83.61;98915.28;5072105;28;20025;-85
2021/12/25 06:19:03;;;;;;;14.45;6.97;;;;;;;1.36;84.67;98922.78;5053449;28;20127;-87
2021/12/25 06:21:28;;;;;;;11.20;6.85;;;;;;;1.26;84.70;98924.13;5050106;28;20040;-87
2021/12/25 06:23:53;;;;;;;13.43;6.50;;;;;;;1.06;85.00;98910.13;5069179;28;20055;-87
2021/12/25 06:26:19;;;;;;;12.98;7.03;;;;;;;1.23;85.17;98921.06;5065963;28;20032;-86
2021/12/25 06:28:44;;;;;;;14.70;6.20;;;;;;;1.10;85.94;98916.69;5071244;28;20349;-86
2021/12/25 06:31:09;;;;;;;11.02;6.20;;;;;;;1.08;84.67;98926.81;5047939;28;20023;-86
2021/12/25 06:33:34;;;;;;;13.95;7.85;;;;;;;0.99;85.51;98920.91;5067796;28;20047;-87
2021/12/25 06:36:00;;;;;;;9.90;5.97;;;;;;;1.02;85.32;98926.66;5062699;28;20036;-86
2021/12/25 06:38:25;;;;;;;10.48;6.47;;;;;;;0.92;86.55;98937.06;5053569;28;20467;-86
2021/12/25 06:40:50;;;;;;;10.10;5.20;;;;;;;0.92;85.72;98931.69;5070507;28;20024;-86
2021/12/25 06:43:16;;;;;;;11.75;6.68;;;;;;;1.06;85.71;98931.59;5067430;28;20021;-86
2021/12/25 06:45:41;;;;;;;11.18;6.32;;;;;;;1.02;86.06;98926.66;5070822;28;20380;-86
2021/12/25 06:48:07;;;;;;;13.60;6.50;;;;;;;0.96;85.85;98935.59;5067050;28;20039;-85
2021/12/25 06:53:36;;;;;;;12.65;5.95;;;;;;;1.20;84.82;98937.63;5068698;28;20090;-84
2021/12/25 06:56:02;;;;;;;10.88;6.40;;;;;;;1.13;84.43;98940.38;5068578;28;20028;-86
2021/12/25 06:58:27;;;;;;;12.27;6.15;;;;;;;1.00;85.41;98938.66;5053581;28;20044;-86
2021/12/25 07:00:52;;;;;;;10.55;6.55;;;;;;;1.09;85.19;98952.63;5049356;28;20017;-87
2021/12/25 07:03:18;;;;;;;11.25;6.20;;;;;;;1.08;84.35;98941.03;5073922;28;20024;-86
2021/12/25 07:05:43;;;;;;;9.52;4.75;;;;;;;1.18;84.05;98951.28;5068863;28;20082;-86
2021/12/25 07:08:08;;;;;;;9.63;5.55;;;;;;;0.97;84.48;98949.84;5069198;28;20025;-86
2021/12/25 07:10:34;;;;;;;11.45;5.82;;;;;;;0.90;84.55;98955.25;5069167;28;20016;-86
2021/12/25 07:12:59;;;;;;;8.68;5.15;;;;;;;0.98;84.27;98962.22;5067048;28;20059;-87
2021/12/25 07:15:25;;;;;;;13.15;7.47;;;;;;;0.93;84.33;98963.72;5067670;28;20494;-86
2021/12/25 07:17:50;;;;;;;11.18;6.43;;;;;;;0.81;84.96;98971.66;5065147;28;21110;-86
2021/12/25 07:20:15;;;;;;;11.43;6.05;;;;;;;0.78;85.45;98972.09;5069789;28;20035;-86
2021/12/25 07:22:41;;;;;;;12.35;5.78;;;;;;;0.83;84.75;98971.44;5069509;28;20024;-87
2021/12/25 07:25:07;;;;;;;10.30;7.22;;;;;;;0.87;84.74;98974.50;5069862;28;20123;-85
2021/12/25 07:27:33;;;;;;;10.95;6.40;;;;;;;1.02;83.42;98974.97;5066723;28;20021;-86
2021/12/25 07:29:59;;;;;;;13.80;7.00;;;;;;;0.78;84.93;98974.78;5069681;28;20065;-87
2021/12/25 07:32:24;;;;;;;15.43;7.75;;;;;;;0.66;84.38;98981.91;5066840;28;20013;-86
2021/12/25 07:34:50;;;;;;;12.57;6.72;;;;;;;0.55;84.36;98986.91;5067054;28;20079;-84
2021/12/25 07:37:16;;;;;;;11.13;6.32;;;;;;;0.57;85.80;98979.47;5071878;28;20039;-86
2021/12/25 07:39:42;;;;;;;12.45;5.80;;;;;;;0.69;85.20;98984.97;5067599;28;20025;-84
2021/12/25 07:42:08;;;;;;;13.18;7.43;;;;;;;0.78;85.09;98984.69;5069824;28;20013;-85
2021/12/25 07:44:34;;;;;;;11.95;6.30;;;;;;;0.67;84.48;98986.22;5047404;28;20039;-86
2021/12/25 07:47:00;;;;;;;13.25;7.78;;;;;;;0.59;85.76;98981.94;5081306;28;20322;-85
2021/12/25 07:49:27;;;;;;;16.52;5.95;;;;;;;0.61;84.89;99008.56;5065730;28;20024;-85
2021/12/25 07:51:52;;;;;;;13.27;6.95;;;;;;;0.53;85.88;99005.09;5058588;28;20024;-85
2021/12/25 07:54:18;;;;;;;14.50;7.10;;;;;;;0.84;84.76;98999.09;5059870;28;20341;-85
2021/12/25 07:56:43;;;;;;;14.23;8.07;;;;;;;0.92;84.04;99012.25;5057872;28;21311;-86
2021/12/25 07:59:08;;;;;;;12.35;6.72;;;;;;;0.84;83.79;99007.97;5060976;28;20024;-85
2021/12/25 08:01:35;;;;;;;11.73;6.95;;;;;;;0.56;85.09;99017.25;5059009;28;20026;-85
2021/12/25 08:04:02;;;;;;;13.57;8.30;;;;;;;0.54;84.95;99022.84;5042556;28;20047;-86
2021/12/25 08:06:27;;;;;;;12.93;6.82;;;;;;;0.68;83.93;99022.75;5057633;28;20040;-86
2021/12/25 08:08:55;;;;;;;16.30;7.85;;;;;;;0.70;83.86;99020.66;5061159;28;20124;-86
2021/12/25 08:11:21;;;;;;;14.00;8.13;;;;;;;0.70;83.48;99017.97;5043316;28;20375;-85
2021/12/25 08:13:46;;;;;;;11.63;6.00;;;;;;;0.35;84.74;99021.91;5060066;28;20033;-86
2021/12/25 08:16:12;;;;;;;14.13;7.47;;;;;;;0.66;83.97;99030.19;5061281;28;20549;-86
2021/12/25 08:18:37;;;;;;;17.02;8.80;;;;;;;0.69;84.26;99035.13;5040078;28;20036;-86
2021/12/25 08:21:04;;;;;;;9.85;6.30;;;;;;;0.64;84.58;99048.38;5059077;28;20139;-86
2021/12/25 08:23:32;;;;;;;12.55;6.97;;;;;;;0.59;84.32;99046.31;5058586;28;20033;-85
2021/12/25 08:25:58;;;;;;;11.98;7.38;;;;;;;0.32;85.74;99052.69;5064994;28;20039;-85
2021/12/25 08:28:23;;;;;;;15.98;7.60;;;;;;;0.34;85.35;99047.13;5063108;28;20089;-85
2021/12/25 08:33:33;;;;;;;10.88;6.30;;;;;;;0.35;85.40;99051.44;5058025;28;20063;-86
2021/12/25 08:35:58;;;;;;;12.98;7.35;;;;;;;0.41;85.00;99055.09;5060519;28;20021;-85
2021/12/25 08:38:23;;;;;;;14.05;7.00;;;;;;;0.30;83.79;99054.78;5063768;28;20020;-85
2021/12/25 08:40:53;;;;;;;15.05;7.60;;;;;;;0.43;83.87;99053.84;5066464;28;20391;-86
2021/12/25 08:43:24;;;;;;;12.02;5.40;;;;;;;0.56;83.36;99041.41;5071121;28;20032;-86
2021/12/25 08:46:00;;;;;;;10.38;5.88;;;;;;;0.52;83.40;99057.13;5071298;28;20031;-84
2021/12/25 08:48:26;;;;;;;12.20;6.63;;;;;;;0.61;82.67;99060.34;5068683;28;20039;-85
2021/12/25 08:50:57;;;;;;;10.45;5.35;;;;;;;0.32;83.47;99055.38;5070234;28;20646;-84
2021/12/25 08:53:25;;;;;;;11.82;5.50;;;;;;;0.54;83.46;99060.41;5067543;28;20058;-86
2021/12/25 08:55:54;;;;;;;15.77;8.88;;;;;;;0.52;83.52;99062.50;5070739;28;20032;-85
2021/12/25 08:59:15;;;;;;;10.80;6.22;;;;;;;0.26;84.09;99064.28;5047506;28;20037;-84
2021/12/25 09:01:40;;;;;;;11.18;5.70;;;;;;;0.55;83.50;99059.34;5065725;28;20021;-86
2021/12/25 09:04:06;;;;;;;9.70;5.43;;;;;;;0.72;82.30;99072.25;5066694;28;20123;-83
2021/12/25 09:06:33;;;;;;;7.57;4.35;;;;;;;0.54;82.90;99065.78;5063739;28;20025;-83
2021/12/25 09:08:59;;;;;;;9.73;5.35;;;;;;;0.65;82.36;99068.81;5065578;28;20031;-83
2021/12/25 09:11:24;;;;;;;11.90;5.63;;;;;;;0.41;83.79;99076.56;5063697;28;20024;-84
2021/12/25 09:13:50;;;;;;;10.27;5.38;;;;;;;0.49;83.31;99076.31;5048744;28;20035;-85
2021/12/25 09:16:15;;;;;;;8.80;4.65;;;;;;;0.54;82.07;99081.88;5069671;28;20028;-86
2021/12/25 09:18:41;;;;;;;9.25;4.63;;;;;;;0.22;83.23;99081.84;5069113;28;20553;-84
2021/12/25 09:21:07;;;;;;;7.40;4.15;;;;;;;0.40;82.88;99074.94;5070343;28;20055;-86
2021/12/25 09:23:34;;;;;;;6.65;3.22;;;;;;;0.55;81.53;99086.19;5042856;28;20669;-86
2021/12/25 09:25:59;;;;;;;10.50;4.82;;;;;;;0.46;82.27;99074.06;5064740;28;20714;-84
2021/12/25 09:28:25;;;;;;;9.63;3.83;;;;;;;0.56;82.19;99092.38;5071061;28;20051;-87
2021/12/25 09:30:50;;;;;;;7.78;3.72;;;;;;;0.41;82.05;99093.47;5070627;28;20107;-88
2021/12/25 09:33:15;;;;;;;7.18;3.25;;;;;;;0.34;81.88;99098.91;5054035;28;20066;-86
2021/12/25 09:35:41;;;;;;;8.15;4.15;;;;;;;0.45;81.01;99109.97;5072388;28;20017;-87
2021/12/25 09:38:06;;;;;;;6.75;3.55;;;;;;;0.21;81.64;99098.94;5070307;28;20687;-87
2021/12/25 09:40:32;;;;;;;11.98;6.90;;;;;;;0.44;81.70;99105.66;5045874;28;20434;-87
2021/12/25 09:42:57;;;;;;;7.88;4.25;;;;;;;0.29;81.52;99096.00;5067991;28;20024;-88
2021/12/25 09:49:02;;;;;;;7.70;3.67;;;;;;;0.36;81.64;99096.00;5044723;28;20047;-89
2021/12/25 09:51:28;;;;;;;7.95;3.70;;;;;;;0.38;80.32;99098.47;5057350;28;20416;-92
2021/12/25 09:54:01;;;;;;;7.90;3.45;;;;;;;0.33;81.01;99105.28;5060209;28;20059;-90
2021/12/25 09:56:28;;;;;;;7.28;3.08;;;;;;;0.41;81.27;99114.09;5062948;28;20442;-92
2021/12/25 09:58:54;;;;;;;8.32;3.80;;;;;;;0.49;80.45;99119.22;5060642;28;20553;-90
2021/12/25 10:01:53;;;;;;;4.75;2.50;;;;;;;0.47;80.20;99121.31;5042983;28;20024;-88
2021/12/25 10:04:45;;;;;;;5.75;2.50;;;;;;;0.32;80.02;99114.38;5007590;28;20106;-94
2021/12/25 10:07:24;;;;;;;5.63;2.20;;;;;;;0.09;80.26;99109.50;5058626;28;20036;-88
2021/12/25 10:10:07;;;;;;;5.60;2.65;;;;;;;0.25;80.16;99105.53;5043711;28;20406;-88
2021/12/25 10:12:45;;;;;;;4.70;2.42;;;;;;;0.27;79.59;99110.66;5045071;28;20037;-88
2021/12/25 10:15:20;;;;;;;6.60;2.75;;;;;;;0.11;80.19;99110.94;5043285;28;20028;-94
2021/12/25 10:17:52;;;;;;;5.80;2.72;;;;;;;0.24;79.55;99119.97;5062858;28;20028;-94
2021/12/25 10:20:28;;;;;;;4.90;2.17;;;;;;;0.28;79.46;99107.78;5059896;28;20115;-88
2021/12/25 10:23:10;;;;;;;4.53;1.77;;;;;;;0.27;78.83;99119.53;5060632;28;20020;-90
2021/12/25 10:25:51;;;;;;;5.07;2.53;;;;;;;0.40;79.24;99121.34;5061996;28;20044;-88
2021/12/25 10:28:20;;;;;;;7.28;3.67;;;;;;;0.47;78.61;99118.63;5059562;28;20037;-87
2021/12/25 10:30:52;;;;;;;6.63;2.65;;;;;;;0.25;79.06;99110.06;5061410;28;20051;-87
2021/12/25 10:33:38;;;;;;;6.45;3.92;;;;;;;0.30;79.32;99113.78;5060361;28;20044;-87
2021/12/25 10:36:07;;;;;;;6.20;3.03;;;;;;;0.31;78.63;99120.75;5061330;28;20025;-93
2021/12/25 10:38:35;;;;;;;6.93;3.38;;;;;;;0.33;78.78;99116.00;5064621;28;20020;-94
2021/12/25 10:41:20;;;;;;;6.35;3.50;;;;;;;0.10;78.75;99125.38;5061220;28;20021;-89
2021/12/25 10:43:48;;;;;;;10.32;6.13;;;;;;;0.04;79.60;99112.81;5062946;28;20028;-87
2021/12/25 10:46:14;;;;;;;8.55;4.95;;;;;;;0.39;78.96;99116.19;5058839;28;20024;-87
2021/12/25 10:48:40;;;;;;;7.30;4.43;;;;;;;0.15;78.64;99116.69;5061641;28;20024;-87
2021/12/25 10:51:21;;;;;;;8.20;5.57;;;;;;;0.10;80.11;99120.00;5059328;28;20028;-87
2021/12/25 10:53:52;;;;;;;8.20;4.22;;;;;;;0.66;77.66;99114.22;5059518;28;20135;-86
2021/12/25 10:56:20;;;;;;;7.65;4.47;;;;;;;0.47;78.87;99115.94;5061358;28;20119;-88
2021/12/25 10:58:46;;;;;;;7.35;3.72;;;;;;;0.39;78.12;99121.56;5057794;28;20024;-87
2021/12/25 11:01:17;;;;;;;6.75;3.38;;;;;;;0.60;77.95;99127.66;5061035;28;20024;-95
2021/12/25 11:03:44;;;;;;;5.68;2.53;;;;;;;0.35;76.72;99121.16;5041276;28;20035;-87
2021/12/25 11:06:17;;;;;;;5.93;2.80;;;;;;;0.50;77.54;99123.56;5061828;28;20025;-89
2021/12/25 11:08:43;;;;;;;5.28;2.25;;;;;;;0.43;77.52;99126.28;5059878;28;20033;-87
2021/12/25 11:11:15;;;;;;;4.95;2.35;;;;;;;0.54;77.30;99119.44;5058205;28;20024;-89
2021/12/25 11:13:47;;;;;;;5.63;2.20;;;;;;;0.41;77.87;99127.53;5060340;28;20044;-89
2021/12/25 11:16:15;;;;;;;4.35;2.10;;;;;;;0.51;78.09;99125.22;5059276;28;20059;-86
2021/12/25 11:19:17;;;;;;;5.00;2.58;;;;;;;0.32;77.57;99125.09;5042539;28;20036;-88
2021/12/25 11:21:52;;;;;;;6.05;3.20;;;;;;;0.52;75.97;99120.69;5059959;28;20028;-86
2021/12/25 11:24:35;;;;;;;6.70;2.83;;;;;;;0.30;77.14;99126.34;5059180;28;20024;-86
2021/12/25 11:27:04;;;;;;;4.13;2.03;;;;;;;0.36;76.45;99127.34;5059426;28;20033;-88
2021/12/25 11:29:31;;;;;;;18.13;9.50;;;;;;;0.39;77.05;99114.34;5057863;28;20027;-88
2021/12/25 11:31:58;;;;;;;19.02;11.65;;;;;;;0.41;77.25;99116.78;5061372;28;20032;-87
2021/12/25 11:34:25;;;;;;;11.80;6.53;;;;;;;0.36;77.63;99114.78;5059883;28;20059;-88
2021/12/25 11:36:53;;;;;;;11.13;7.53;;;;;;;0.50;76.38;99112.84;5064444;28;20024;-88
2021/12/25 11:39:21;;;;;;;8.95;4.43;;;;;;;0.65;77.08;99115.22;5047555;28;20029;-86
2021/12/25 11:41:49;;;;;;;5.65;3.13;;;;;;;0.72;75.85;99119.72;5058652;28;20375;-86
2021/12/25 11:44:41;;;;;;;7.30;3.08;;;;;;;0.57;76.54;99119.00;5061884;28;20473;-87
2021/12/25 11:47:27;;;;;;;8.90;2.78;;;;;;;0.52;76.98;99112.63;5059367;28;20044;-87
2021/12/25 11:50:08;;;;;;;5.38;2.78;;;;;;;0.60;76.33;99107.00;5058600;28;20048;-88
2021/12/25 11:52:41;;;;;;;6.57;2.90;;;;;;;0.28;76.73;99109.66;5042917;28;20603;-87
2021/12/25 12:00:38;;;;;;;9.10;3.83;;;;;;;0.72;76.26;99099.09;5064715;28;20024;-87
2021/12/25 12:03:04;;;;;;;5.07;2.03;;;;;;;0.08;77.04;99106.00;5063384;28;20016;-87
2021/12/25 12:05:32;;;;;;;5.32;2.53;;;;;;;0.31;76.80;99104.69;5065001;28;20024;-87
2021/12/25 12:08:08;;;;;;;5.60;2.08;;;;;;;0.33;75.51;99105.28;5063480;28;20028;-88
2021/12/25 12:10:45;;;;;;;3.88;2.00;;;;;;;0.33;75.58;99102.59;5066077;28;20384;-84
2021/12/25 12:13:14;;;;;;;4.78;2.17;;;;;;;0.20;75.60;99108.03;5063653;28;20028;-86
2021/12/25 12:15:47;;;;;;;4.53;2.25;;;;;;;0.29;76.29;99112.09;5064019;28;20112;-87
2021/12/25 12:18:30;;;;;;;4.53;2.03;;;;;;;0.57;75.03;99116.31;5045548;28;20029;-87
2021/12/25 12:21:08;;;;;;;6.15;3.17;;;;;;;0.25;75.67;99110.06;5063056;28;20036;-87
2021/12/25 12:24:10;;;;;;;34.38;15.20;;;;;;;0.41;75.28;99108.75;5064735;28;20038;-87
2021/12/25 12:26:44;;;;;;;37.38;15.18;;;;;;;0.32;76.91;99109.03;5064214;28;20067;-87
2021/12/25 12:29:10;;;;;;;11.90;6.32;;;;;;;0.28;75.90;99112.31;5044821;28;20028;-87
2021/12/25 12:31:42;;;;;;;31.38;15.05;;;;;;;0.54;75.09;99114.06;5063947;28;20037;-87
2021/12/25 12:34:29;;;;;;;58.10;26.65;;;;;;;0.28;75.51;99118.53;5062322;28;20097;-87
2021/12/25 12:37:28;;;;;;;38.03;19.92;;;;;;;0.51;74.53;99114.47;5064449;28;20999;-86
2021/12/25 12:39:53;;;;;;;19.02;12.35;;;;;;;0.71;74.44;99121.63;5030780;28;20036;-87
2021/12/25 12:42:20;;;;;;;19.13;10.77;;;;;;;0.62;74.40;99114.84;5061807;28;20035;-86
2021/12/25 12:44:48;;;;;;;10.50;6.15;;;;;;;0.75;73.54;99116.63;5063547;28;20115;-87
2021/12/25 12:47:16;;;;;;;8.40;4.72;;;;;;;0.40;73.49;99118.69;5062919;28;20040;-85
2021/12/25 12:49:42;;;;;;;6.93;4.45;;;;;;;0.40;74.11;99117.84;5046879;28;20050;-86
2021/12/25 12:52:16;;;;;;;8.07;4.93;;;;;;;0.22;74.37;99111.31;5063265;28;20047;-87
2021/12/25 12:54:48;;;;;;;3.40;1.88;;;;;;;0.32;73.77;99114.38;5062223;28;20420;-87
2021/12/25 12:57:30;;;;;;;5.97;2.05;;;;;;;0.68;73.53;99130.09;5045850;28;20149;-86
2021/12/25 13:00:02;;;;;;;4.75;1.98;;;;;;;0.62;72.29;99118.34;5061314;28;20050;-86
2021/12/25 13:02:31;;;;;;;4.60;1.88;;;;;;;0.53;72.58;99128.50;5047663;28;20044;-86
2021/12/25 13:05:00;;;;;;;4.13;1.25;;;;;;;0.73;73.45;99114.19;5063117;28;20053;-86
2021/12/25 13:07:29;;;;;;;2.25;1.40;;;;;;;0.64;72.78;99110.91;5044254;28;20055;-85
2021/12/25 13:13:13;;;;;;;4.95;1.85;;;;;;;0.61;71.04;99108.66;5070396;28;20040;-87
2021/12/25 13:15:41;;;;;;;5.80;2.95;;;;;;;0.53;72.28;99109.72;5071544;28;20021;-87
2021/12/25 13:18:07;;;;;;;7.95;3.20;;;;;;;0.46;72.15;99111.63;5070339;28;20380;-86